createdAt,value
2023-05-18T00:01:41.266Z,5.65
2023-05-18T00:03:47.515Z,5.63
2023-05-18T00:05:52.934Z,5.25
2023-05-18T00:08:00.644Z,6.10
2023-05-18T00:10:06.868Z,5.63
2023-05-18T00:12:12.801Z,5.22
2023-05-18T00:14:17.902Z,5.82
2023-05-18T00:16:23.544Z,5.20
2023-05-18T00:18:28.893Z,6.15
2023-05-18T00:20:34.859Z,4.95
2023-05-18T00:22:43.082Z,6.00
2023-05-18T00:24:51.467Z,5.43
2023-05-18T00:26:58.351Z,5.55
2023-05-18T00:29:03.485Z,6.38
2023-05-18T00:31:08.767Z,5.85
2023-05-18T00:33:14.265Z,6.10
2023-05-18T00:35:19.376Z,6.75
2023-05-18T00:37:25.558Z,5.68
2023-05-18T00:39:30.676Z,4.68
2023-05-18T00:41:38.997Z,5.15
2023-05-18T00:43:44.186Z,5.53
2023-05-18T00:45:49.567Z,4.63
2023-05-18T00:47:55.313Z,5.55
2023-05-18T00:50:00.605Z,5.10
2023-05-18T00:52:08.135Z,5.13
2023-05-18T00:54:13.278Z,5.57
2023-05-18T00:56:18.790Z,6.13
2023-05-18T00:58:26.832Z,6.10
2023-05-18T01:00:32.133Z,5.75
2023-05-18T01:02:43.218Z,5.47
2023-05-18T01:04:48.391Z,5.28
2023-05-18T01:06:56.877Z,4.97
2023-05-18T01:09:04.398Z,5.38
2023-05-18T01:11:21.866Z,5.10
2023-05-18T01:13:38.850Z,5.00
2023-05-18T01:15:45.203Z,5.93
2023-05-18T01:18:10.744Z,5.57
2023-05-18T01:20:25.336Z,5.45
2023-05-18T01:22:51.997Z,5.82
2023-05-18T01:25:06.796Z,5.28
2023-05-18T01:27:19.441Z,6.38
2023-05-18T01:29:25.726Z,5.30
2023-05-18T01:31:31.564Z,5.93
2023-05-18T01:33:36.734Z,5.97
2023-05-18T01:35:48.591Z,6.28
2023-05-18T01:37:54.294Z,5.50
2023-05-18T01:39:59.407Z,5.28
2023-05-18T01:42:12.394Z,5.20
2023-05-18T01:44:27.164Z,5.10
2023-05-18T01:46:42.800Z,5.13
2023-05-18T01:48:56.895Z,5.38
2023-05-18T01:51:03.501Z,5.13
2023-05-18T01:53:16.786Z,6.10
2023-05-18T01:55:23.762Z,4.80
2023-05-18T01:57:32.736Z,5.40
2023-05-18T01:59:41.872Z,4.22
2023-05-18T02:01:47.736Z,4.65
2023-05-18T02:03:54.755Z,5.40
2023-05-18T02:06:00.334Z,4.70
2023-05-18T02:08:06.173Z,4.68
2023-05-18T02:10:13.655Z,4.85
2023-05-18T02:12:19.651Z,5.95
2023-05-18T02:14:25.154Z,5.22
2023-05-18T02:16:33.291Z,6.50
2023-05-18T02:18:39.037Z,5.03
2023-05-18T02:20:44.881Z,4.95
2023-05-18T02:22:49.930Z,6.05
2023-05-18T02:24:55.813Z,6.15
2023-05-18T02:27:01.595Z,5.60
2023-05-18T02:29:08.330Z,5.38
2023-05-18T02:31:15.739Z,6.20
2023-05-18T02:33:26.724Z,6.25
2023-05-18T02:35:32.572Z,6.40
2023-05-18T02:37:40.262Z,5.85
2023-05-18T02:39:45.942Z,6.38
2023-05-18T02:41:52.188Z,5.88
2023-05-18T02:43:57.959Z,6.80
2023-05-18T02:46:04.757Z,7.03
2023-05-18T02:48:12.721Z,6.22
2023-05-18T02:50:20.777Z,6.25
2023-05-18T02:52:28.338Z,6.70
2023-05-18T02:54:34.078Z,6.45
2023-05-18T02:56:41.987Z,6.18
2023-05-18T02:59:01.506Z,5.75
2023-05-18T03:01:19.242Z,5.88
2023-05-18T03:03:28.757Z,6.50
2023-05-18T03:05:37.073Z,7.00
2023-05-18T03:07:42.365Z,6.90
2023-05-18T03:09:47.819Z,7.40
2023-05-18T03:11:53.897Z,7.40
2023-05-18T03:13:59.021Z,7.38
2023-05-18T03:16:04.103Z,7.20
2023-05-18T03:18:09.769Z,7.22
2023-05-18T03:20:15.798Z,8.20
2023-05-18T03:22:23.792Z,7.32
2023-05-18T03:24:30.786Z,7.22
2023-05-18T03:26:39.919Z,8.48
2023-05-18T03:28:45.078Z,8.00
2023-05-18T03:30:50.647Z,7.07
2023-05-18T03:32:56.903Z,7.88
2023-05-18T03:35:04.840Z,7.05
2023-05-18T03:37:11.057Z,6.63
2023-05-18T03:39:19.205Z,6.95
2023-05-18T03:41:24.781Z,7.22
2023-05-18T03:43:32.777Z,6.72
2023-05-18T03:45:39.153Z,7.20
2023-05-18T03:47:45.535Z,7.32
2023-05-18T03:49:51.584Z,6.35
2023-05-18T03:51:57.824Z,7.40
2023-05-18T03:54:03.354Z,6.57
2023-05-18T03:56:13.892Z,7.80
2023-05-18T03:58:20.298Z,6.88
2023-05-18T04:00:25.986Z,6.68
2023-05-18T04:02:31.312Z,7.03
2023-05-18T04:04:36.592Z,7.38
2023-05-18T04:06:42.512Z,7.25
2023-05-18T04:08:48.504Z,6.85
2023-05-18T04:10:54.287Z,7.13
2023-05-18T04:13:02.304Z,7.50
2023-05-18T04:15:09.377Z,7.28
2023-05-18T04:17:15.129Z,6.53
2023-05-18T04:19:21.900Z,7.07
2023-05-18T04:21:27.332Z,6.90
2023-05-18T04:23:33.596Z,6.78
2023-05-18T04:25:39.798Z,6.90
2023-05-18T04:27:47.803Z,7.90
2023-05-18T04:29:58.362Z,6.70
2023-05-18T04:32:03.593Z,6.90
2023-05-18T04:34:09.225Z,6.93
2023-05-18T04:36:15.193Z,7.80
2023-05-18T04:38:23.257Z,7.20
2023-05-18T04:40:28.434Z,8.02
2023-05-18T04:42:34.716Z,8.02
2023-05-18T04:44:40.323Z,9.18
2023-05-18T04:46:48.502Z,6.90
2023-05-18T04:48:58.314Z,7.57
2023-05-18T04:51:36.098Z,7.63
2023-05-18T04:53:41.208Z,7.15
2023-05-18T04:55:47.471Z,7.72
2023-05-18T04:57:54.218Z,7.70
2023-05-18T04:59:59.295Z,7.57
2023-05-18T05:02:08.117Z,8.60
2023-05-18T05:04:13.502Z,7.60
2023-05-18T05:06:19.818Z,8.50
2023-05-18T05:08:25.318Z,8.07
2023-05-18T05:10:31.094Z,7.82
2023-05-18T05:12:36.582Z,7.63
2023-05-18T05:14:41.703Z,8.10
2023-05-18T05:16:46.830Z,7.85
2023-05-18T05:18:55.344Z,7.78
2023-05-18T05:21:00.486Z,7.65
2023-05-18T05:23:06.055Z,7.70
2023-05-18T05:25:12.444Z,7.57
2023-05-18T05:27:18.967Z,6.95
2023-05-18T05:29:26.536Z,7.80
2023-05-18T05:31:32.272Z,7.50
2023-05-18T05:33:37.362Z,9.05
2023-05-18T05:35:45.058Z,6.93
2023-05-18T05:37:50.997Z,7.30
2023-05-18T05:39:56.738Z,7.55
2023-05-18T05:42:01.886Z,7.95
2023-05-18T05:44:07.656Z,7.00
2023-05-18T05:46:12.751Z,6.95
2023-05-18T05:48:18.681Z,6.55
2023-05-18T05:50:24.355Z,7.20
2023-05-18T05:52:34.697Z,6.88
2023-05-18T05:54:41.201Z,7.13
2023-05-18T05:56:46.704Z,7.13
2023-05-18T05:58:53.639Z,6.35
2023-05-18T06:00:59.212Z,6.28
2023-05-18T06:03:04.337Z,6.20
2023-05-18T06:05:13.407Z,6.68
2023-05-18T06:07:18.584Z,6.68
2023-05-18T06:09:26.521Z,6.63
2023-05-18T06:11:32.931Z,6.55
2023-05-18T06:13:38.217Z,6.72
2023-05-18T06:15:43.359Z,6.43
2023-05-18T06:17:49.742Z,5.70
2023-05-18T06:19:55.029Z,5.78
2023-05-18T06:22:00.249Z,6.53
2023-05-18T06:24:09.638Z,5.20
2023-05-18T06:26:36.482Z,5.50
2023-05-18T06:29:00.445Z,5.53
2023-05-18T06:31:13.317Z,6.07
2023-05-18T06:33:30.134Z,5.53
2023-05-18T06:35:36.491Z,5.55
2023-05-18T06:37:41.820Z,5.35
2023-05-18T06:39:47.657Z,5.32
2023-05-18T06:41:55.668Z,4.90
2023-05-18T06:44:04.971Z,5.38
2023-05-18T06:46:32.191Z,5.15
2023-05-18T06:48:45.716Z,5.28
2023-05-18T06:50:50.872Z,4.70
2023-05-18T06:52:56.048Z,4.80
2023-05-18T06:55:01.435Z,4.68
2023-05-18T06:57:10.262Z,5.00
2023-05-18T06:59:16.154Z,5.43
2023-05-18T07:01:22.164Z,4.45
2023-05-18T07:03:27.512Z,4.78
2023-05-18T07:05:33.153Z,4.25
2023-05-18T07:07:38.883Z,4.65
2023-05-18T07:09:45.894Z,4.68
2023-05-18T07:11:51.584Z,4.32
2023-05-18T07:13:59.529Z,4.25
2023-05-18T07:16:04.643Z,4.20
2023-05-18T07:18:10.420Z,4.50
2023-05-18T07:20:15.674Z,3.63
2023-05-18T07:22:20.860Z,4.50
2023-05-18T07:24:25.994Z,4.10
2023-05-18T07:26:31.936Z,3.78
2023-05-18T07:28:37.157Z,4.32
2023-05-18T07:30:44.814Z,3.90
2023-05-18T07:32:51.787Z,2.90
2023-05-18T07:34:57.744Z,3.03
2023-05-18T07:37:03.383Z,3.35
2023-05-18T07:39:09.183Z,3.35
2023-05-18T07:41:14.315Z,4.53
2023-05-18T07:43:19.951Z,3.00
2023-05-18T07:45:25.104Z,3.72
2023-05-18T07:47:33.767Z,3.00
2023-05-18T07:49:39.550Z,2.92
2023-05-18T07:51:44.861Z,3.08
2023-05-18T07:53:50.283Z,2.55
2023-05-18T07:55:55.356Z,3.05
2023-05-18T07:58:01.422Z,2.70
2023-05-18T08:00:09.981Z,2.45
2023-05-18T08:02:20.117Z,2.35
2023-05-18T08:04:28.026Z,2.60
2023-05-18T08:06:33.828Z,2.72
2023-05-18T08:08:38.991Z,2.80
2023-05-18T08:10:44.269Z,3.17
2023-05-18T08:12:49.659Z,2.90
2023-05-18T08:14:54.735Z,2.70
2023-05-18T08:17:02.594Z,2.97
2023-05-18T08:19:07.776Z,2.53
2023-05-18T08:21:15.663Z,2.45
2023-05-18T08:23:21.148Z,3.00
2023-05-18T08:25:26.587Z,2.10
2023-05-18T08:27:31.924Z,2.63
2023-05-18T08:29:37.074Z,2.70
2023-05-18T08:31:44.987Z,2.47
2023-05-18T08:33:51.537Z,2.55
2023-05-18T08:35:56.816Z,2.20
2023-05-18T08:38:05.686Z,2.78
2023-05-18T08:40:14.918Z,2.45
2023-05-18T08:42:29.560Z,3.08
2023-05-18T08:44:48.597Z,2.53
2023-05-18T08:46:54.844Z,2.95
2023-05-18T08:49:03.595Z,2.70
2023-05-18T08:51:11.489Z,2.95
2023-05-18T08:53:21.532Z,2.10
2023-05-18T08:55:28.313Z,2.47
2023-05-18T08:57:36.233Z,2.20
2023-05-18T08:59:45.507Z,2.63
2023-05-18T09:01:50.652Z,2.20
2023-05-18T09:03:55.956Z,2.75
2023-05-18T09:06:03.832Z,2.20
2023-05-18T09:08:10.499Z,2.28
2023-05-18T09:10:18.161Z,2.50
2023-05-18T09:12:25.233Z,2.60
2023-05-18T09:14:30.303Z,2.50
2023-05-18T09:16:36.166Z,2.13
2023-05-18T09:18:41.789Z,2.75
2023-05-18T09:20:48.276Z,2.40
2023-05-18T09:22:54.041Z,2.40
2023-05-18T09:24:59.341Z,2.63
2023-05-18T09:27:08.065Z,2.00
2023-05-18T09:29:21.107Z,2.00
2023-05-18T09:31:27.938Z,2.75
2023-05-18T09:33:40.745Z,3.10
2023-05-18T09:35:47.080Z,2.53
2023-05-18T09:37:53.257Z,2.33
2023-05-18T09:40:08.181Z,2.67
2023-05-18T09:42:15.991Z,2.63
2023-05-18T09:44:21.314Z,2.90
2023-05-18T09:46:26.625Z,2.55
2023-05-18T09:48:32.055Z,2.30
2023-05-18T09:50:37.679Z,2.35
2023-05-18T09:52:47.861Z,2.30
2023-05-18T09:55:02.639Z,2.08
2023-05-18T09:57:11.193Z,2.83
2023-05-18T09:59:19.707Z,2.85
2023-05-18T10:01:24.920Z,2.75
2023-05-18T10:03:34.094Z,2.80
2023-05-18T10:05:40.003Z,1.90
2023-05-18T10:07:46.958Z,2.42
2023-05-18T10:10:08.517Z,2.25
2023-05-18T10:12:16.373Z,2.42
2023-05-18T10:14:31.394Z,2.60
2023-05-18T10:16:37.041Z,3.17
2023-05-18T10:18:42.966Z,2.30
2023-05-18T10:20:51.391Z,2.60
2023-05-18T10:22:59.516Z,2.58
2023-05-18T10:25:08.200Z,3.25
2023-05-18T10:27:14.537Z,2.40
2023-05-18T10:29:23.170Z,2.45
2023-05-18T10:31:30.848Z,3.00
2023-05-18T10:33:38.616Z,2.88
2023-05-18T10:35:44.251Z,2.13
2023-05-18T10:37:53.316Z,3.20
2023-05-18T10:40:01.224Z,2.47
2023-05-18T10:42:08.926Z,2.67
2023-05-18T10:44:14.115Z,2.83
2023-05-18T10:46:26.574Z,2.60
2023-05-18T10:48:32.732Z,2.17
2023-05-18T10:50:40.565Z,2.75
2023-05-18T10:52:47.545Z,2.40
2023-05-18T10:54:52.676Z,2.10
2023-05-18T10:57:01.130Z,2.47
2023-05-18T10:59:07.313Z,2.47
2023-05-18T11:01:14.698Z,2.35
2023-05-18T11:03:23.655Z,2.55
2023-05-18T11:05:29.459Z,2.25
2023-05-18T11:07:35.072Z,2.70
2023-05-18T11:09:41.367Z,2.20
2023-05-18T11:11:56.532Z,2.70
2023-05-18T11:14:04.911Z,2.20
2023-05-18T11:16:11.632Z,2.65
2023-05-18T11:18:18.066Z,2.30
2023-05-18T11:20:28.998Z,2.38
2023-05-18T11:22:51.958Z,2.05
2023-05-18T11:24:57.009Z,2.28
2023-05-18T11:27:04.152Z,2.47
2023-05-18T11:29:24.527Z,2.10
2023-05-18T11:31:47.255Z,2.70
2023-05-18T11:33:52.334Z,2.30
2023-05-18T11:36:15.166Z,2.65
2023-05-18T11:38:21.331Z,2.58
2023-05-18T11:40:49.453Z,2.83
2023-05-18T11:43:01.782Z,2.85
2023-05-18T11:45:11.171Z,2.80
2023-05-18T11:47:16.262Z,2.92
2023-05-18T11:49:23.897Z,2.75
2023-05-18T11:51:35.002Z,2.45
2023-05-18T11:53:40.218Z,2.50
2023-05-18T11:55:46.052Z,2.78
2023-05-18T11:57:55.064Z,2.63
2023-05-18T12:00:01.715Z,2.65
2023-05-18T12:02:10.746Z,2.67
2023-05-18T12:04:16.211Z,2.53
2023-05-18T12:06:21.950Z,2.15
2023-05-18T12:08:30.536Z,2.38
2023-05-18T12:10:39.856Z,2.88
2023-05-18T12:12:45.166Z,2.53
2023-05-18T12:14:57.593Z,2.75
2023-05-18T12:17:04.199Z,3.08
2023-05-18T12:19:11.163Z,2.55
2023-05-18T12:21:17.208Z,2.33
2023-05-18T12:23:22.276Z,2.58
2023-05-18T12:25:30.922Z,2.72
2023-05-18T12:27:42.045Z,2.45
2023-05-18T12:29:47.153Z,2.47
2023-05-18T12:31:52.772Z,2.40
2023-05-18T12:33:59.181Z,2.50
2023-05-18T12:36:04.845Z,2.78
2023-05-18T12:38:09.899Z,2.20
2023-05-18T12:40:17.907Z,2.45
2023-05-18T12:42:25.648Z,2.45
2023-05-18T12:44:30.902Z,2.40
2023-05-18T12:46:36.403Z,2.38
2023-05-18T12:48:48.878Z,2.30
2023-05-18T12:50:55.727Z,2.13
2023-05-18T12:53:01.995Z,3.10
2023-05-18T12:55:11.326Z,2.70
2023-05-18T12:57:16.591Z,2.78
2023-05-18T12:59:24.256Z,2.70
2023-05-18T13:01:30.810Z,2.00
2023-05-18T13:03:37.441Z,2.30
2023-05-18T13:05:45.059Z,2.55
2023-05-18T13:07:50.397Z,2.80
2023-05-18T13:09:56.929Z,2.17
2023-05-18T13:12:07.581Z,2.53
2023-05-18T13:14:13.193Z,2.20
2023-05-18T13:16:24.292Z,2.25
2023-05-18T13:18:30.386Z,2.28
2023-05-18T13:20:38.269Z,2.58
2023-05-18T13:22:43.363Z,2.35
2023-05-18T13:24:48.495Z,2.15
2023-05-18T13:26:53.589Z,2.65
2023-05-18T13:29:00.624Z,2.55
2023-05-18T13:31:05.833Z,2.83
2023-05-18T13:33:14.042Z,2.40
2023-05-18T13:35:19.536Z,2.72
2023-05-18T13:37:24.595Z,2.28
2023-05-18T13:39:29.691Z,2.38
2023-05-18T13:41:36.548Z,2.33
2023-05-18T13:43:41.727Z,2.10
2023-05-18T13:45:47.172Z,2.40
2023-05-18T13:47:53.754Z,2.60
2023-05-18T13:50:01.445Z,2.33
2023-05-18T13:52:07.247Z,2.45
2023-05-18T13:54:12.386Z,2.50
2023-05-18T13:56:17.452Z,2.33
2023-05-18T13:58:23.926Z,2.20
2023-05-18T14:00:29.217Z,2.20
2023-05-18T14:02:34.472Z,2.10
2023-05-18T14:04:39.623Z,1.90
2023-05-18T14:06:47.554Z,2.20
2023-05-18T14:08:52.656Z,2.50
2023-05-18T14:10:57.692Z,2.55
2023-05-18T14:13:03.266Z,2.40
2023-05-18T14:15:10.077Z,2.08
2023-05-18T14:17:15.599Z,2.70
2023-05-18T14:19:21.152Z,2.42
2023-05-18T14:21:26.283Z,2.30
2023-05-18T14:23:34.196Z,2.45
2023-05-18T14:25:39.286Z,2.10
2023-05-18T14:27:44.383Z,2.63
2023-05-18T14:29:49.470Z,2.55
2023-05-18T14:31:54.683Z,2.15
2023-05-18T14:34:00.058Z,2.20
2023-05-18T14:36:05.245Z,2.47
2023-05-18T14:38:10.355Z,1.88
2023-05-18T14:40:18.548Z,2.25
2023-05-18T14:42:23.594Z,1.92
2023-05-18T14:44:29.166Z,2.28
2023-05-18T14:46:34.403Z,1.98
2023-05-18T14:48:39.493Z,2.42
2023-05-18T14:50:44.528Z,1.77
2023-05-18T14:52:49.872Z,1.95
2023-05-18T14:54:55.941Z,2.13
2023-05-18T14:57:03.608Z,2.42
2023-05-18T14:59:08.754Z,2.00
2023-05-18T15:01:13.832Z,1.95
2023-05-18T15:03:18.949Z,1.92
2023-05-18T15:05:24.289Z,2.10
2023-05-18T15:07:29.583Z,2.03
2023-05-18T15:09:34.770Z,2.22
2023-05-18T15:11:39.805Z,2.10
2023-05-18T15:13:48.037Z,2.03
2023-05-18T15:15:53.794Z,2.85
2023-05-18T15:17:59.003Z,1.63
2023-05-18T15:20:04.549Z,2.83
2023-05-18T15:22:09.863Z,1.85
2023-05-18T15:24:15.163Z,2.30
2023-05-18T15:26:21.464Z,2.13
2023-05-18T15:28:26.529Z,1.90
2023-05-18T15:30:34.475Z,2.60
2023-05-18T15:32:39.693Z,2.00
2023-05-18T15:34:44.876Z,1.73
2023-05-18T15:36:50.206Z,2.00
2023-05-18T15:38:55.277Z,2.38
2023-05-18T15:41:00.664Z,2.00
2023-05-18T15:43:05.722Z,2.47
2023-05-18T15:45:12.421Z,1.90
2023-05-18T15:47:20.598Z,1.90
2023-05-18T15:49:25.684Z,1.85
2023-05-18T15:51:31.149Z,2.10
2023-05-18T15:53:36.245Z,1.90
2023-05-18T15:55:41.556Z,1.80
2023-05-18T15:57:46.695Z,1.50
2023-05-18T15:59:51.856Z,1.70
2023-05-18T16:01:57.434Z,1.77
2023-05-18T16:04:05.803Z,2.20
2023-05-18T16:06:11.764Z,2.15
2023-05-18T16:08:17.225Z,2.15
2023-05-18T16:10:23.591Z,2.90
2023-05-18T16:12:28.684Z,1.48
2023-05-18T16:14:33.772Z,2.35
2023-05-18T16:16:39.130Z,2.03
2023-05-18T16:18:44.299Z,3.38
2023-05-18T16:20:51.969Z,2.40
2023-05-18T16:22:57.100Z,2.10
2023-05-18T16:25:02.324Z,2.05
2023-05-18T16:27:08.000Z,2.00
2023-05-18T16:29:13.090Z,2.70
2023-05-18T16:31:18.168Z,2.55
2023-05-18T16:33:25.291Z,2.63
2023-05-18T16:35:32.017Z,2.85
2023-05-18T16:37:39.775Z,2.13
2023-05-18T16:39:44.849Z,2.00
2023-05-18T16:41:49.925Z,2.05
2023-05-18T16:43:55.867Z,1.58
2023-05-18T16:46:01.098Z,1.85
2023-05-18T16:48:06.815Z,1.90
2023-05-18T16:50:13.348Z,1.80
2023-05-18T16:52:18.613Z,2.20
2023-05-18T16:54:26.261Z,1.83
2023-05-18T16:56:32.115Z,1.48
2023-05-18T16:58:37.194Z,1.88
2023-05-18T17:00:42.246Z,1.95
2023-05-18T17:02:47.933Z,1.70
2023-05-18T17:04:53.319Z,1.90
2023-05-18T17:06:58.909Z,1.70
2023-05-18T17:09:06.279Z,1.95
2023-05-18T17:11:14.545Z,1.75
2023-05-18T17:13:19.994Z,1.98
2023-05-18T17:15:25.254Z,1.83
2023-05-18T17:17:30.523Z,2.30
2023-05-18T17:19:36.532Z,1.90
2023-05-18T17:21:42.653Z,1.75
2023-05-18T17:23:47.919Z,2.30
2023-05-18T17:26:00.933Z,2.17
2023-05-18T17:28:16.508Z,1.75
2023-05-18T17:30:21.572Z,2.00
2023-05-18T17:32:27.085Z,2.10
2023-05-18T17:34:32.553Z,2.25
2023-05-18T17:36:37.639Z,2.47
2023-05-18T17:38:42.971Z,1.90
2023-05-18T17:40:48.132Z,1.70
2023-05-18T17:42:53.387Z,1.90
2023-05-18T17:45:01.095Z,2.05
2023-05-18T17:47:06.556Z,2.00
2023-05-18T17:49:12.273Z,2.00
2023-05-18T17:51:17.387Z,2.05
2023-05-18T17:53:22.710Z,1.50
2023-05-18T17:55:27.847Z,3.10
2023-05-18T17:57:33.071Z,1.67
2023-05-18T17:59:38.240Z,1.80
2023-05-18T18:01:45.914Z,2.13
2023-05-18T18:03:51.239Z,4.15
2023-05-18T18:05:56.748Z,2.40
2023-05-18T18:08:01.814Z,2.50
2023-05-18T18:10:08.153Z,2.13
2023-05-18T18:12:13.314Z,2.10
2023-05-18T18:14:18.963Z,1.92
2023-05-18T18:16:24.588Z,1.90
2023-05-18T18:18:32.785Z,2.35
2023-05-18T18:20:38.407Z,2.17
2023-05-18T18:22:43.453Z,2.35
2023-05-18T18:24:48.763Z,2.00
2023-05-18T18:26:55.804Z,1.83
2023-05-18T18:29:01.143Z,1.83
2023-05-18T18:31:07.388Z,1.83
2023-05-18T18:33:12.596Z,1.63
2023-05-18T18:35:20.968Z,1.73
2023-05-18T18:37:26.070Z,2.15
2023-05-18T18:39:31.551Z,2.08
2023-05-18T18:41:36.806Z,1.40
2023-05-18T18:43:41.872Z,1.88
2023-05-18T18:45:47.258Z,1.80
2023-05-18T18:47:52.353Z,2.03
2023-05-18T18:49:57.865Z,1.85
2023-05-18T18:52:06.661Z,2.17
2023-05-18T18:54:11.802Z,2.05
2023-05-18T18:56:16.884Z,1.60
2023-05-18T18:58:24.323Z,2.03
2023-05-18T19:00:29.858Z,1.73
2023-05-18T19:02:34.933Z,2.13
2023-05-18T19:04:40.034Z,2.25
2023-05-18T19:06:46.680Z,2.00
2023-05-18T19:08:54.441Z,1.77
2023-05-18T19:11:00.029Z,1.70
2023-05-18T19:13:06.133Z,1.67
2023-05-18T19:15:13.666Z,2.03
2023-05-18T19:17:18.964Z,1.90
2023-05-18T19:19:24.171Z,1.98
2023-05-18T19:21:29.536Z,1.80
2023-05-18T19:23:34.605Z,1.65
2023-05-18T19:25:42.610Z,2.03
2023-05-18T19:27:48.052Z,1.95
2023-05-18T19:29:53.374Z,1.83
2023-05-18T19:31:59.759Z,1.70
2023-05-18T19:34:05.091Z,2.08
2023-05-18T19:36:11.381Z,1.60
2023-05-18T19:40:58.579Z,2.30
2023-05-18T19:43:03.848Z,1.85
2023-05-18T19:45:10.256Z,1.90
2023-05-18T19:47:15.316Z,2.38
2023-05-18T19:49:21.381Z,2.15
2023-05-18T19:51:26.507Z,1.90
2023-05-18T19:53:31.579Z,2.15
2023-05-18T19:55:36.688Z,2.17
2023-05-18T19:57:44.316Z,2.20
2023-05-18T19:59:49.391Z,2.13
2023-05-18T20:01:56.554Z,2.30
2023-05-18T20:04:01.822Z,2.00
2023-05-18T20:06:07.672Z,2.13
2023-05-18T20:08:13.216Z,2.40
2023-05-18T20:10:18.862Z,2.10
2023-05-18T20:12:23.966Z,2.20
2023-05-18T20:14:33.473Z,2.28
2023-05-18T20:16:39.892Z,2.22
2023-05-18T20:18:46.004Z,3.22
2023-05-18T20:20:51.186Z,2.60
2023-05-18T20:22:56.282Z,1.95
2023-05-18T20:25:01.478Z,2.22
2023-05-18T20:27:06.821Z,2.17
2023-05-18T20:29:13.025Z,2.25
2023-05-18T20:31:20.826Z,1.85
2023-05-18T20:33:26.681Z,2.17
2023-05-18T20:35:32.181Z,2.28
2023-05-18T20:37:37.810Z,3.15
2023-05-18T20:39:50.686Z,1.90
2023-05-18T20:41:57.806Z,2.20
2023-05-18T20:44:03.181Z,2.03
2023-05-18T20:46:09.926Z,1.90
2023-05-18T20:48:24.885Z,2.00
2023-05-18T20:50:30.428Z,2.45
2023-05-18T20:52:36.341Z,1.85
2023-05-18T20:54:41.724Z,1.98
2023-05-18T20:56:47.586Z,1.75
2023-05-18T20:58:52.986Z,2.10
2023-05-18T21:00:58.125Z,1.92
2023-05-18T21:03:04.440Z,2.67
2023-05-18T21:05:13.054Z,2.05
2023-05-18T21:07:19.024Z,2.17
2023-05-18T21:09:24.256Z,2.40
2023-05-18T21:11:31.130Z,2.00
2023-05-18T21:13:37.269Z,2.35
2023-05-18T21:15:42.483Z,1.90
2023-05-18T21:17:47.836Z,2.33
2023-05-18T21:19:53.816Z,2.15
2023-05-18T21:22:01.583Z,2.40
2023-05-18T21:24:07.009Z,2.03
2023-05-18T21:26:12.423Z,2.40
2023-05-18T21:28:19.126Z,2.03
2023-05-18T21:30:24.289Z,2.30
2023-05-18T21:32:29.558Z,2.55
2023-05-18T21:34:34.764Z,3.03
2023-05-18T21:36:40.056Z,1.98
2023-05-18T21:38:47.774Z,2.58
2023-05-18T21:40:53.412Z,2.05
2023-05-18T21:42:58.507Z,1.95
2023-05-18T21:45:03.864Z,1.80
2023-05-18T21:47:09.234Z,2.35
2023-05-18T21:49:14.585Z,2.33
2023-05-18T21:51:20.597Z,2.10
2023-05-18T21:53:25.811Z,2.13
2023-05-18T21:55:33.933Z,2.35
2023-05-18T21:57:39.059Z,1.98
2023-05-18T21:59:44.122Z,1.83
2023-05-18T22:01:49.535Z,2.50
2023-05-18T22:03:54.883Z,2.10
2023-05-18T22:06:00.549Z,2.35
2023-05-18T22:08:05.792Z,2.85
2023-05-18T22:10:11.411Z,1.98
2023-05-18T22:12:19.328Z,2.10
2023-05-18T22:14:24.429Z,1.80
2023-05-18T22:16:31.863Z,2.25
2023-05-18T22:18:37.106Z,2.22
2023-05-18T22:20:42.256Z,1.77
2023-05-18T22:22:47.581Z,2.05
2023-05-18T22:24:52.728Z,1.92
2023-05-18T22:26:57.825Z,3.03
2023-05-18T22:29:05.568Z,2.40
2023-05-18T22:31:10.668Z,2.10
2023-05-18T22:33:17.049Z,2.53
2023-05-18T22:35:22.162Z,2.60
2023-05-18T22:37:27.241Z,2.45
2023-05-18T22:39:32.423Z,2.33
2023-05-18T22:41:37.562Z,3.15
2023-05-18T22:43:43.043Z,2.40
2023-05-18T22:45:51.254Z,2.15
2023-05-18T22:47:57.757Z,2.40
2023-05-18T22:50:02.877Z,2.22
2023-05-18T22:52:10.488Z,2.22
2023-05-18T22:54:15.858Z,2.22
2023-05-18T22:56:21.980Z,2.65
2023-05-18T22:58:27.519Z,2.47
2023-05-18T23:00:32.732Z,2.10
2023-05-18T23:02:42.618Z,2.38
2023-05-18T23:04:47.776Z,2.08
2023-05-18T23:06:54.290Z,2.20
2023-05-18T23:09:00.784Z,2.22
2023-05-18T23:11:06.163Z,2.35
2023-05-18T23:13:11.762Z,2.08
2023-05-18T23:15:16.887Z,2.20
2023-05-18T23:17:23.413Z,3.00
2023-05-18T23:19:31.862Z,2.83
2023-05-18T23:21:37.207Z,2.50
2023-05-18T23:23:42.938Z,3.08
2023-05-18T23:25:48.070Z,2.08
2023-05-18T23:27:53.126Z,2.00
2023-05-18T23:29:58.203Z,2.50
2023-05-18T23:32:03.583Z,2.20
2023-05-18T23:34:10.498Z,2.38
2023-05-18T23:36:22.307Z,2.30
2023-05-18T23:38:35.061Z,2.20
2023-05-18T23:40:40.672Z,2.55
2023-05-18T23:42:46.947Z,2.30
2023-05-18T23:44:53.725Z,2.40
2023-05-18T23:47:00.111Z,2.50
2023-05-18T23:49:07.285Z,2.78
2023-05-18T23:51:17.870Z,2.35
2023-05-18T23:53:26.339Z,2.58
2023-05-18T23:55:32.172Z,2.50
2023-05-18T23:57:38.167Z,2.63
2023-05-18T23:59:45.138Z,2.40
